Pomfret Center, CT (06259)

5:39 PM EDT on July 01, 2015 (GMT -0400)
Pomfret School | | Change Station
CLOSE
Current Station
Personal Weather Station
Location: Pomfret, CT
Elevation: 577 ft
Nearby Weather Stations

Elev 577 ft 41.89 °N, 71.97 °W | Updated 1 second ago

Partly Cloudy
Partly Cloudy
79.0 °F
Feels Like 82 °F
N
0.9
Wind Variable Wind from SSW
Gusts 5.0 mph

Today
High -- | Low -- °F
--% Chance of Precip.
Yesterday
High -- | Low -- °F
Precip. -- in
5:16 AM 8:27 PM
Full, 100% visible
Pressure 29.73 in
Visibility 10.0 miles
Clouds Few 3700 ft
Scattered Clouds 4700 ft
Heat Index 82 °F
Dew Point 69 °F
Humidity 72%
Rainfall 0.60 in
Snow Depth Not available.
UV 4 out of 12
Pollen .90 out of 12
Air Quality Not available.
Flu Activity Not available.
METAR KIJD 012052Z AUTO 22008KT 10SM FEW037 SCT047 27/18 A2973 RMK AO2 SLP065 T02720183 55002

More Conditions Fewer Conditions

Pressure 29.73 in
Visibility 10.0 miles
Clouds Few 3700 ft
Scattered Clouds 4700 ft
Heat Index 82 °F
Dew Point 69 °F
Humidity 72%
Rainfall 0.60 in
Snow Depth Not available.
UV 4 out of 12
Pollen .90 out of 12
Air Quality Not available.
Flu Activity Not available.
METAR KIJD 012052Z AUTO 22008KT 10SM FEW037 SCT047 27/18 A2973 RMK AO2 SLP065 T02720183 55002

More Conditions Fewer Conditions

10-Day Weather Forecast

×

Almanac

Astronomy

Jul. 01, 2015 Rise Set
Actual Time
Civil Twilight
Nautical Twilight
Astronomical Twilight
Moon
Length of Visible Light
Length of Day
Tomorrow will be .
, % of the Moon is Illuminated

Today's Extremes

State Highs State Lows

Community

WunderPhotos

Upload Photos

1,834,294 photos uploaded!

WunderBlogs® & News

Nearby

Air Quality

  Air Quality AQ Index Pollutant
Not available.

Snow Depth

Station Depth Elevation

Earthquake Activity

City Distance Mag. Time & Date
Minimum magnitude displayed is 2.5.

Coastal Water Temperatures

Place Temperature

Stations

Nearby Weather Stations

Station Location Temp. Windchill Dew Point Humidity Wind Precip. Elev Updated Type